logo
App data

Tennis in the Face

Shoot tennis balls at your adversaries and save the city from the evil Explodz Inc. This is no Wimbledon, this is Tennis in the Face! Get ready for some hilarious ragdoll-smashing ball-bouncing action!
Store | Hub | SteamDB | Site
Developer: 10tons Ltd Publisher: 10tons Ltd
Genre: Action, Casual, Indie, Sports
Languages: English
Tags: Casual (45), Indie (43), Sports (34), Action (34), Funny (34), Physics (26), 2D (15), Singleplayer (14), Arcade (13), Comedy (13), Destruction (12), Puzzle (7)
Category: Single-player, Steam Achievements, Full controller support, Steam Trading Cards
Release date: Nov 18, 2015
Price: $4.99
Score rank: 87% Userscore: 93% Old userscore: 93%
Owners: 0 .. 20,000
Followers: 0
Peak concurrent players yesterday: 1
Playtime total: 03:00 (average) 03:00 (median)

Steam Spy is still in beta, so expect major bugs.

Owners data:

Access restricted.

This feature is only available to users with special access rights. Sorry.

If you want to proceed, you need to register or log in first and then back Steam Spy on Patreon. Look for Indie or Pro pledge.

Don't forget to use the same email as on Steam Spy!

Audience in 2 weeks:

Access restricted.

This feature is only available to users with special access rights. Sorry.

If you want to proceed, you need to register or log in first and then back Steam Spy on Patreon. Look for Indie or Pro pledge.

Don't forget to use the same email as on Steam Spy!

Peak daily concurrent players:

CCU data courtesy of SteamDB. Used with permission.

Hourly concurrent players:

Daily Twitch stats:

Hourly Twitch stats:

YouTube:

The views data is based on top 50 videos uploaded last week. Actual number of views might be more than the number shown.

The displayed number of videos uploaded yesterday is limited to 50, so if there were more videos uploaded, the number will still show 50.

If the game has commonly used word as its name (like "FEAR" or "Volume") its number of Youtube views might be wrong.

Games similar to this one:

# Game Release date
Price
Score rank
(Userscore / Metascore)
Owners
Players
Playtime (Median)
1 Night Blights Apr 15, 2016 $4.9999% (98%)0 .. 20,0000%00:00 (00:00)
2 Carrie's Order Up! Sep 13, 2016 $2.9999% (98%)0 .. 20,0000%00:00 (00:00)
3 Luxor Evolved Mar 1, 2012 $9.9997% (97%)50,000 .. 100,0000%00:00 (00:00)
4 Hustle Cat Mar 16, 2016 $19.9995% (96%)20,000 .. 50,0000%00:00 (00:00)
5 Beat Da Beat Mar 10, 2016 $1.9993% (95%)0 .. 20,0000%00:00 (00:00)
6 A Good Snowman Is Hard To Build Feb 25, 2015 $9.9993% (95%)20,000 .. 50,0000%00:00 (00:00)
7 Chip's Challenge 2 May 28, 2015 $4.9990% (94%)20,000 .. 50,0000%00:00 (00:00)
8 [the Sequence] Mar 30, 2016 $1.9987% (93%)0 .. 20,0000%00:00 (00:00)
9 12 Labours of Hercules Mar 23, 2015 $2.9987% (93%)100,000 .. 200,0000.44%07:45 (04:53)
10 Girls Like Robots Feb 14, 2014 $6.9987% (93%)100,000 .. 200,0000%00:00 (00:00)
11 Swapperoo Dec 18, 2015 $4.99N/A (N/A)0 .. 20,0000%00:00 (00:00)
12 SquareCells Dec 7, 2015 $2.9984% (92%)20,000 .. 50,0001.67%02:24 (00:48)
13 Griptape Backbone May 5, 2017 Free84% (92%)0 .. 20,0000%00:00 (00:00)
14 Earthtongue Apr 27, 2015 $4.9984% (92%)0 .. 20,0000%00:00 (00:00)
15 Grapple Mar 9, 2015 $6.9980% (91%)20,000 .. 50,0001.96%01:37 (01:04)
16 The Jackbox Party Pack Nov 26, 2014 $24.9980% (91%)200,000 .. 500,0003.42%01:12 (00:48)
17 Tribloos 2 Jan 30, 2014 $4.9980% (91%)100,000 .. 200,0000%00:00 (00:00)
18 Think To Die 3 Mar 27, 2017 $4.99N/A (N/A)0 .. 20,0000%00:00 (00:00)
19 Frog Climbers Oct 6, 2016 $6.9977% (90%)20,000 .. 50,0000%00:00 (00:00)
20 Vampires: Guide Them to Safety! Oct 22, 2014 $4.99N/A (N/A)0 .. 20,0003.85%00:01 (00:00)
21 On Rusty Trails Jun 13, 2016 $12.9977% (90%/77%)50,000 .. 100,0000%00:00 (00:00)
22 This Starry Midnight We Make Jun 1, 2015 $9.99N/A (N/A)0 .. 20,0000%00:00 (00:00)
23 Forgotten, Not Lost - A Kinetic Novel Apr 2, 2016 $1.9974% (89%)50,000 .. 100,0003.17%04:31 (04:34)
24 Clock Simulator Jul 20, 2016 $0.9974% (89%)20,000 .. 50,0000%00:00 (00:00)
25 The Reject Demon: Toko Chapter 0 — Prelude May 8, 2015 $4.9974% (89%)0 .. 20,0000%00:00 (00:00)
26 12 Labours of Hercules IV: Mother Nature (Platinum Edition) Dec 25, 2015 $2.9974% (89%)20,000 .. 50,0000%00:00 (00:00)
27 Koala Kids Jun 22, 2015 $1.9974% (89%)20,000 .. 50,0000%00:00 (00:00)
28 12 Labours of Hercules V: Kids of Hellas (Platinum Edition) Jun 17, 2016 $2.9974% (89%)20,000 .. 50,0000%00:00 (00:00)
29 Without Within 2 Nov 9, 2015 $4.9974% (89%)0 .. 20,0000%00:00 (00:00)
30 Bob Was Hungry Aug 19, 2015 $0.9971% (88%)20,000 .. 50,0000%00:00 (00:00)
31 Recursion Deluxe Feb 12, 2016 $4.9971% (88%)0 .. 20,0000%00:00 (00:00)
32 In Between Aug 21, 2015 $11.9971% (88%/68%)50,000 .. 100,0000%00:00 (00:00)
33 Thrillville: Off the Rails Oct 9, 2007 $9.9968% (87%/70%)20,000 .. 50,0000%00:00 (00:00)
34 Asphyxia Aug 4, 2015 $5.9968% (87%)20,000 .. 50,0000%00:00 (00:00)
35 Loot Hound Nov 17, 2015 $1.4968% (87%)0 .. 20,0000%00:00 (00:00)
36 Oozi: Earth Adventure Dec 5, 2013 $4.9966% (86%/66%)50,000 .. 100,0000.85%08:44 (05:49)
37 Anode Oct 5, 2015 $3.9966% (86%)0 .. 20,0000%00:00 (00:00)
38 Army of Pixels Oct 29, 2015 $4.99N/A (N/A)0 .. 20,0000%00:00 (00:00)
39 Cursed Sight Aug 3, 2015 $5.9966% (86%)0 .. 20,0000%00:00 (00:00)
40 Darkarta: A Broken Heart's Quest Collector's Edition Mar 8, 2017 $5.9966% (86%)20,000 .. 50,0000%00:00 (00:00)
41 Sophie's Curse Mar 16, 2016 $4.9966% (86%)50,000 .. 100,0000%00:00 (00:00)
42 BAD END Nov 25, 2015 $1.9963% (85%)0 .. 20,0000%00:00 (00:00)
43 Dead Man's Draw Feb 6, 2014 $6.9963% (85%)20,000 .. 50,0000%00:00 (00:00)
44 Magma Tsunami Jun 1, 2016 $0.9963% (85%)100,000 .. 200,0000.38%06:42 (04:27)
45 Psycho Starship Rampage Sep 28, 2015 $9.9963% (85%)0 .. 20,0000%00:00 (00:00)
46 Sentinel 4: Dark Star Aug 13, 2015 $6.99N/A (N/A)0 .. 20,0004.35%13:19 (04:26)
47 Alpha Runner Sep 2, 2015 $0.9963% (85%)50,000 .. 100,0000.76%01:57 (01:17)
48 RePete Nov 1, 2015 $1.99N/A (N/A)0 .. 20,0000%00:00 (00:00)
49 Collisions Jul 28, 2015 $3.9958% (83%)20,000 .. 50,0000%00:00 (00:00)
50 Job the Leprechaun Jul 31, 2015 $1.9958% (83%)20,000 .. 50,0000.61%02:04 (00:41)
51 Cyto Jul 10, 2014 $3.9958% (83%)20,000 .. 50,0000%00:00 (00:00)
52 Governor of Poker 2 - Premium Edition Oct 11, 2010 $14.9958% (83%)20,000 .. 50,0000%00:00 (00:00)
53 Gridworld Dec 29, 2015 $0.9958% (83%)0 .. 20,0004%00:01 (00:00)
54 Steam and Metal Feb 9, 2015 $4.9958% (83%)0 .. 20,0000%00:00 (00:00)
55 Cute Things Dying Violently Sep 2, 2015 $2.99N/A (N/A)0 .. 20,0000%00:00 (00:00)
56 Stay Alight Mar 2, 2015 $3.9954% (81%)20,000 .. 50,0000%00:00 (00:00)
57 Egg Returns Home May 5, 2015 $1.9951% (80%)20,000 .. 50,0000%00:00 (00:00)
58 Archimedes Oct 6, 2016 $2.9951% (80%)100,000 .. 200,0000%00:00 (00:00)
59 Space Drifters 2D Mar 28, 2016 $0.99N/A (N/A)20,000 .. 50,0000%00:00 (00:00)
60 Star Sky - ブルームーン Oct 23, 2015 $3.9949% (79%)0 .. 20,0000%00:00 (00:00)
61 Optika Aug 26, 2016 $1.2449% (79%)20,000 .. 50,0000%00:00 (00:00)
62 Air Missions: HIND Mar 21, 2016 $16.9949% (79%)0 .. 20,0005.56%01:20 (00:26)
63 The Last NightMary - A Lenda do Cabeça de Cuia Nov 2, 2015 $3.9949% (79%)50,000 .. 100,0000%00:00 (00:00)
64 GamersGoMakers Aug 8, 2014 $9.9949% (79%)0 .. 20,0002.44%00:01 (00:00)
65 Dungeon Painter Studio Feb 26, 2017 $14.9949% (79%)20,000 .. 50,0000%00:00 (00:00)
66 Terraform May 8, 2015 $2.99N/A (N/A)0 .. 20,0000%00:00 (00:00)
67 Beeftacular Aug 26, 2016 $2.9947% (78%)0 .. 20,0000%00:00 (00:00)
68 hackmud Sep 22, 2016 $19.9947% (78%)20,000 .. 50,0003.7%05:51 (01:57)
69 Particulars Nov 19, 2014 $5.9947% (78%/74%)20,000 .. 50,0000%00:00 (00:00)
70 The Survey Oct 27, 2016 $1.2447% (78%)0 .. 20,0000%00:00 (00:00)
71 Farm for your Life Jun 16, 2014 $9.9947% (78%)50,000 .. 100,0000%00:00 (00:00)
72 Neon Prism Nov 18, 2016 $4.9947% (78%)50,000 .. 100,0000.26%00:29 (00:09)
73 SinaRun Oct 26, 2015 $2.9945% (77%)0 .. 20,0000%00:00 (00:00)
74 Paranormal State: Poison Spring Apr 9, 2014 $9.9945% (77%)50,000 .. 100,0000%00:00 (00:00)
75 Fate Tectonics Sep 9, 2015 $9.9945% (77%)0 .. 20,0000%00:00 (00:00)
76 ConflictCraft Dec 8, 2016 $2.99N/A (N/A)20,000 .. 50,0000.8%00:16 (00:05)
77 Rescue Team 5 Sep 30, 2015 $3.9943% (76%)20,000 .. 50,0000%00:00 (00:00)
78 Kombine Oct 14, 2016 $0.4943% (76%)0 .. 20,0000%00:00 (00:00)
79 Pixel Puzzles 2: Birds Feb 20, 2015 $9.9943% (76%)200,000 .. 500,0000.38%01:48 (01:11)
80 The Deletion Jul 30, 2015 $1.9941% (75%)20,000 .. 50,0000%00:00 (00:00)
81 Where are my Internets? Dec 16, 2016 $2.9941% (75%)0 .. 20,0000%00:00 (00:00)
82 MOAI 2: Path to Another World Jul 16, 2015 $7.99N/A (N/A)0 .. 20,0000%00:00 (00:00)
83 Western FPS Mar 13, 2017 $0.9938% (73%)200,000 .. 500,0000%00:00 (00:00)
84 Idle Evolution Apr 3, 2017 $4.9936% (72%)0 .. 20,00014.29%89:40 (59:46)
85 GO AWAY, THERE'S KUMIS OVER THERE! Oct 28, 2016 $0.9936% (72%)50,000 .. 100,0000%00:00 (00:00)
86 Axel & Pixel Oct 6, 2010 $4.99N/A (N/A)20,000 .. 50,0000%00:00 (00:00)
87 Turbo Pug 3D Sep 20, 2016 $1.9936% (72%)200,000 .. 500,0000.91%04:32 (04:30)
88 Laserlife Sep 22, 2015 $14.9935% (71%)0 .. 20,0000%00:00 (00:00)
89 Caravanserail Feb 26, 2016 $2.99N/A (N/A)0 .. 20,0000%00:00 (00:00)
90 Zipple World Jan 19, 2016 $4.99N/A (N/A)0 .. 20,0000%00:00 (00:00)
91 Wanda - A Beautiful Apocalypse Jun 3, 2016 $1.9931% (69%)100,000 .. 200,0000%00:00 (00:00)
92 Pester Aug 21, 2015 $0.9930% (68%)100,000 .. 200,0000.19%01:33 (00:31)
93 Sinister City Oct 20, 2014 $0.9930% (68%)100,000 .. 200,0000.19%02:19 (00:46)
94 Love in the Glen Jun 9, 2016 $5.99N/A (N/A)20,000 .. 50,0000%00:00 (00:00)
95 Totally Unbalanced Jul 29, 2016 $2.9930% (68%)0 .. 20,0000%00:00 (00:00)
96 Alter World May 29, 2015 $1.9928% (67%)100,000 .. 200,0000.64%23:24 (23:23)
97 Mind Games Mar 4, 2016 $2.9928% (67%)0 .. 20,0000%00:00 (00:00)
98 One Last Chance Apr 7, 2016 $3.9928% (67%)20,000 .. 50,0000%00:00 (00:00)
99 1931: Scheherazade at the Library of Pergamum Mar 26, 2015 $14.9928% (67%)0 .. 20,0000%00:00 (00:00)
100 Lift It Jan 20, 2017 $4.9927% (66%)50,000 .. 100,0000%00:00 (00:00)
101 Broken Dreams Feb 19, 2016 $0.4927% (66%)200,000 .. 500,0000.19%03:34 (02:04)
102 XCavalypse Jun 6, 2016 $5.99N/A (N/A)0 .. 20,0000%00:00 (00:00)
103 Fergus The Fly Feb 1, 2017 $0.4924% (64%)200,000 .. 500,0000.72%29:42 (04:25)
104 Highborn Feb 19, 2013 $1.9924% (64%)0 .. 20,0000%00:00 (00:00)
105 Herding Dog Dec 25, 2015 $2.99N/A (N/A)0 .. 20,0000%00:00 (00:00)
106 Marble Duel Nov 12, 2015 $4.9922% (62%)50,000 .. 100,0000%00:00 (00:00)
107 Winexy Jan 13, 2017 $0.9922% (62%)20,000 .. 50,0000%00:00 (00:00)
108 Power of Love Jul 21, 2015 $4.9921% (61%)20,000 .. 50,0000%00:00 (00:00)
109 Goodnight Butcher Dec 18, 2015 $1.99N/A (N/A)20,000 .. 50,0000%00:00 (00:00)
110 FBI MANIA Jan 31, 2017 $0.9920% (60%)100,000 .. 200,0000.26%00:06 (00:02)
111 Won't You Be My Laser? Sep 2, 2016 $0.99N/A (N/A)0 .. 20,0000%00:00 (00:00)
112 Football Blitz Jan 4, 2017 $3.99N/A (N/A)0 .. 20,0000%00:00 (00:00)
113 Star Chronicles: Delta Quadrant Jul 7, 2015 $0.9918% (59%)200,000 .. 500,0000.93%04:19 (04:32)
114 Wildlife Park 2 - Dino World Jul 17, 2014 $3.9917% (58%)20,000 .. 50,0000%00:00 (00:00)
115 Way of Gold and Steel Aug 17, 2015 $8.9916% (57%)20,000 .. 50,0000%00:00 (00:00)
116 Bloop Reloaded Feb 6, 2015 $9.99N/A (N/A)100,000 .. 200,0000.17%01:22 (00:27)
117 Drizzlepath Mar 12, 2015 $2.9914% (54%)0 .. 20,0000%00:00 (00:00)
118 Dance Magic Feb 15, 2016 $9.99N/A (N/A)0 .. 20,0000%00:00 (00:00)
119 Bunny & Piggy Dec 1, 2016 $0.9914% (54%)50,000 .. 100,0000%00:00 (00:00)
120 Backgammon Blitz Nov 12, 2015 $3.9914% (54%)0 .. 20,0000%00:00 (00:00)
121 Sky to Fly: Soulless Leviathan Jul 22, 2016 $3.9913% (53%)0 .. 20,0000%00:00 (00:00)
122 Color Syndrome Jun 20, 2016 $0.9913% (53%)20,000 .. 50,0000%00:00 (00:00)
123 Reptilian Rebellion Aug 8, 2016 $0.9913% (53%)20,000 .. 50,0000%00:00 (00:00)
124 King's Guard TD Jun 8, 2016 $0.7413% (53%)100,000 .. 200,0000.24%00:01 (00:00)
125 Quantum Rush Champions Dec 4, 2014 $2.9913% (53%)20,000 .. 50,0000%00:00 (00:00)
126 Racecraft Mar 4, 2016 Free13% (52%)0 .. 20,0000%00:00 (00:00)
127 Rage Runner May 16, 2014 $4.99N/A (N/A)0 .. 20,0000%00:00 (00:00)
128 Astro Emporia Feb 2, 2015 $0.4910% (47%)20,000 .. 50,0000%00:00 (00:00)
129 Autumn Sep 23, 2014 $2.999% (46%)50,000 .. 100,0000.6%302:53 (100:57)
130 Ninja Stealth 2 Jan 30, 2017 $0.498% (44%)20,000 .. 50,0000%00:00 (00:00)
131 iREC Jan 16, 2017 Free8% (44%)20,000 .. 50,0000%00:00 (00:00)
132 Melting Hearts: Our Love Will Grow 2 Apr 29, 2016 N/A8% (43%)20,000 .. 50,0000%00:00 (00:00)
133 European Ship Simulator Nov 4, 2016 $19.996% (38%)20,000 .. 50,0000%00:00 (00:00)
134 Hide and Secret Treasure of the Ages Mar 15, 2007 $2.99N/A (N/A)0 .. 20,0000%00:00 (00:00)
135 Streets of Chaos Jan 28, 2015 $0.994% (34%)100,000 .. 200,0000%00:00 (00:00)
136 Space Hotel Jan 4, 2017 $0.49N/A (N/A)0 .. 20,0000%00:00 (00:00)
137 Burst Mar 14, 2016 $1.99N/A (N/A)100,000 .. 200,0000%00:00 (00:00)
138 Labyrinth Simulator Sep 21, 2015 $0.994% (31%)0 .. 20,0000%00:00 (00:00)
139 Industry Transporters Aug 31, 2015 $9.99N/A (N/A)0 .. 20,0000%00:00 (00:00)
140 Robot vs Birds Zombies Jul 23, 2015 $0.994% (31%)0 .. 20,0000%00:00 (00:00)
141 Hyposphere May 5, 2016 $2.993% (27%)200,000 .. 500,0000.15%00:04 (00:01)
142 Cyber Team Manager Jan 8, 2016 $4.992% (20%)0 .. 20,0000%00:00 (00:00)
143 One way to exit Mar 12, 2016 $1.99N/A (N/A)200,000 .. 500,0000%00:00 (00:00)

Tags over time:

Access restricted.

This feature is only available to users with special access rights. Sorry.

If you want to proceed, you need to register or log in first and then back Steam Spy on Patreon. Look for Indie or Pro pledge.

Don't forget to use the same email as on Steam Spy!

Owners of this game also own:

Access restricted.

This feature is only available to users with special access rights. Sorry.

If you want to proceed, you need to register or log in first and then back Steam Spy on Patreon. Look for Indie or Pro pledge.

Don't forget to use the same email as on Steam Spy!

Playtime distribution:

Access restricted.

This feature is only available to users with special access rights. Sorry.

If you want to proceed, you need to register or log in first and then back Steam Spy on Patreon. Look for Indie or Pro pledge.

Don't forget to use the same email as on Steam Spy!

Playtime (2 weeks):

Access restricted.

This feature is only available to users with special access rights. Sorry.

If you want to proceed, you need to register or log in first and then back Steam Spy on Patreon. Look for Indie or Pro pledge.

Don't forget to use the same email as on Steam Spy!

User reviews:

Login required.

Please register or log in to see this information.